sensor_id;sensor_type;location;lat;lon;timestamp;pressure;altitude;pressure_sealevel;temperature;humidity
63552;BME280;49698;48.072;7.800;2023-10-13T00:00:41;99477.34;;;19.31;54.02
63552;BME280;49698;48.072;7.800;2023-10-13T00:03:11;99470.88;;;19.36;53.92
63552;BME280;49698;48.072;7.800;2023-10-13T00:06:01;99472.94;;;19.39;53.80
63552;BME280;49698;48.072;7.800;2023-10-13T00:08:48;99476.44;;;19.39;54.16
63552;BME280;49698;48.072;7.800;2023-10-13T00:11:36;99475.22;;;19.37;54.45
63552;BME280;49698;48.072;7.800;2023-10-13T00:14:04;99471.47;;;19.29;55.12
63552;BME280;49698;48.072;7.800;2023-10-13T00:16:36;99465.28;;;19.20;55.60
63552;BME280;49698;48.072;7.800;2023-10-13T00:19:08;99462.25;;;19.09;56.72
63552;BME280;49698;48.072;7.800;2023-10-13T00:21:40;99466.19;;;18.99;57.27
63552;BME280;49698;48.072;7.800;2023-10-13T00:24:09;99465.81;;;18.89;57.66
63552;BME280;49698;48.072;7.800;2023-10-13T00:26:40;99458.53;;;18.80;58.18
63552;BME280;49698;48.072;7.800;2023-10-13T00:29:10;99461.00;;;18.73;58.98
63552;BME280;49698;48.072;7.800;2023-10-13T00:31:44;99460.69;;;18.66;58.92
63552;BME280;49698;48.072;7.800;2023-10-13T00:34:16;99459.34;;;18.60;59.64
63552;BME280;49698;48.072;7.800;2023-10-13T00:36:52;99452.97;;;18.56;60.29
63552;BME280;49698;48.072;7.800;2023-10-13T00:39:34;99462.16;;;18.51;60.45
63552;BME280;49698;48.072;7.800;2023-10-13T00:42:04;99455.78;;;18.47;60.56
63552;BME280;49698;48.072;7.800;2023-10-13T00:44:34;99454.84;;;18.43;60.89
63552;BME280;49698;48.072;7.800;2023-10-13T00:47:09;99452.00;;;18.40;60.91
63552;BME280;49698;48.072;7.800;2023-10-13T00:49:45;99453.47;;;18.37;61.25
63552;BME280;49698;48.072;7.800;2023-10-13T00:52:15;99454.47;;;18.32;61.48
63552;BME280;49698;48.072;7.800;2023-10-13T00:54:45;99454.31;;;18.29;62.05
63552;BME280;49698;48.072;7.800;2023-10-13T00:57:13;99454.19;;;18.25;62.42
63552;BME280;49698;48.072;7.800;2023-10-13T00:59:53;99456.00;;;18.21;62.74
63552;BME280;49698;48.072;7.800;2023-10-13T01:02:22;99453.13;;;18.18;62.99
63552;BME280;49698;48.072;7.800;2023-10-13T01:05:07;99449.47;;;18.14;63.49
63552;BME280;49698;48.072;7.800;2023-10-13T01:07:37;99448.22;;;18.11;63.58
63552;BME280;49698;48.072;7.800;2023-10-13T01:10:11;99442.63;;;18.07;63.81
63552;BME280;49698;48.072;7.800;2023-10-13T01:12:41;99439.47;;;18.05;64.25
63552;BME280;49698;48.072;7.800;2023-10-13T01:15:10;99437.41;;;18.02;64.43
63552;BME280;49698;48.072;7.800;2023-10-13T01:17:38;99437.75;;;18.01;64.53
63552;BME280;49698;48.072;7.800;2023-10-13T01:20:07;99445.44;;;17.99;64.54
63552;BME280;49698;48.072;7.800;2023-10-13T01:22:38;99442.25;;;17.97;64.78
63552;BME280;49698;48.072;7.800;2023-10-13T01:25:12;99446.09;;;17.96;64.96
63552;BME280;49698;48.072;7.800;2023-10-13T01:27:40;99438.25;;;17.94;65.13
63552;BME280;49698;48.072;7.800;2023-10-13T01:30:09;99435.88;;;17.93;65.45
63552;BME280;49698;48.072;7.800;2023-10-13T01:32:40;99432.69;;;17.91;65.83
63552;BME280;49698;48.072;7.800;2023-10-13T01:35:12;99433.03;;;17.89;65.77
63552;BME280;49698;48.072;7.800;2023-10-13T01:37:39;99426.31;;;17.87;65.84
63552;BME280;49698;48.072;7.800;2023-10-13T01:40:08;99423.13;;;17.84;65.87
63552;BME280;49698;48.072;7.800;2023-10-13T01:42:37;99428.56;;;17.84;66.07
63552;BME280;49698;48.072;7.800;2023-10-13T01:45:06;99430.81;;;17.82;66.33
63552;BME280;49698;48.072;7.800;2023-10-13T01:47:34;99425.69;;;17.81;66.34
63552;BME280;49698;48.072;7.800;2023-10-13T01:50:01;99412.78;;;17.78;66.55
63552;BME280;49698;48.072;7.800;2023-10-13T01:52:40;99418.88;;;17.75;66.78
63552;BME280;49698;48.072;7.800;2023-10-13T01:55:09;99423.00;;;17.72;66.85
63552;BME280;49698;48.072;7.800;2023-10-13T01:57:39;99419.38;;;17.68;66.92
63552;BME280;49698;48.072;7.800;2023-10-13T02:00:09;99416.06;;;17.63;67.26
63552;BME280;49698;48.072;7.800;2023-10-13T02:02:45;99416.56;;;17.56;67.44
63552;BME280;49698;48.072;7.800;2023-10-13T02:05:16;99406.53;;;17.48;67.62
63552;BME280;49698;48.072;7.800;2023-10-13T02:07:44;99413.63;;;17.40;67.84
63552;BME280;49698;48.072;7.800;2023-10-13T02:10:12;99403.25;;;17.33;67.99
63552;BME280;49698;48.072;7.800;2023-10-13T02:12:42;99401.38;;;17.25;68.12
63552;BME280;49698;48.072;7.800;2023-10-13T02:15:12;99405.09;;;17.21;68.47
63552;BME280;49698;48.072;7.800;2023-10-13T02:17:48;99405.28;;;17.16;68.83
63552;BME280;49698;48.072;7.800;2023-10-13T02:20:18;99404.63;;;17.10;69.20
63552;BME280;49698;48.072;7.800;2023-10-13T02:22:49;99389.97;;;17.02;69.26
63552;BME280;49698;48.072;7.800;2023-10-13T02:25:16;99393.19;;;16.96;69.60
63552;BME280;49698;48.072;7.800;2023-10-13T02:28:03;99387.47;;;16.89;69.92
63552;BME280;49698;48.072;7.800;2023-10-13T02:30:37;99382.56;;;16.82;70.29
63552;BME280;49698;48.072;7.800;2023-10-13T02:33:04;99381.13;;;16.76;70.65
63552;BME280;49698;48.072;7.800;2023-10-13T02:35:33;99377.94;;;16.65;71.42
63552;BME280;49698;48.072;7.800;2023-10-13T02:38:08;99383.72;;;16.55;72.20
63552;BME280;49698;48.072;7.800;2023-10-13T02:40:38;99372.41;;;16.44;72.22
63552;BME280;49698;48.072;7.800;2023-10-13T02:43:07;99377.50;;;16.37;72.55
63552;BME280;49698;48.072;7.800;2023-10-13T02:45:35;99372.09;;;16.28;73.16
63552;BME280;49698;48.072;7.800;2023-10-13T02:48:04;99369.88;;;16.22;73.50
63552;BME280;49698;48.072;7.800;2023-10-13T02:50:40;99374.97;;;16.14;73.70
63552;BME280;49698;48.072;7.800;2023-10-13T02:53:11;99365.88;;;16.10;73.84
63552;BME280;49698;48.072;7.800;2023-10-13T02:55:51;99364.94;;;16.06;73.57
63552;BME280;49698;48.072;7.800;2023-10-13T02:58:20;99361.75;;;16.04;74.32
63552;BME280;49698;48.072;7.800;2023-10-13T03:00:48;99362.72;;;16.00;74.68
63552;BME280;49698;48.072;7.800;2023-10-13T03:03:16;99353.63;;;15.96;74.37
63552;BME280;49698;48.072;7.800;2023-10-13T03:05:45;99361.59;;;15.92;74.42
63552;BME280;49698;48.072;7.800;2023-10-13T03:08:12;99357.94;;;15.88;74.79
63552;BME280;49698;48.072;7.800;2023-10-13T03:10:52;99360.00;;;15.82;75.17
63552;BME280;49698;48.072;7.800;2023-10-13T03:13:22;99357.44;;;15.77;75.50
63552;BME280;49698;48.072;7.800;2023-10-13T03:15:50;99348.19;;;15.70;75.72
63552;BME280;49698;48.072;7.800;2023-10-13T03:18:18;99344.81;;;15.64;76.03
63552;BME280;49698;48.072;7.800;2023-10-13T03:20:45;99339.88;;;15.57;76.06
63552;BME280;49698;48.072;7.800;2023-10-13T03:23:17;99332.22;;;15.51;76.43
63552;BME280;49698;48.072;7.800;2023-10-13T03:25:44;99337.78;;;15.46;76.36
63552;BME280;49698;48.072;7.800;2023-10-13T03:28:20;99340.63;;;15.40;76.61
63552;BME280;49698;48.072;7.800;2023-10-13T03:30:52;99333.47;;;15.36;77.14
63552;BME280;49698;48.072;7.800;2023-10-13T03:33:20;99342.53;;;15.31;77.38
63552;BME280;49698;48.072;7.800;2023-10-13T03:35:53;99328.03;;;15.27;77.62
63552;BME280;49698;48.072;7.800;2023-10-13T03:38:26;99336.78;;;15.24;77.92
63552;BME280;49698;48.072;7.800;2023-10-13T03:40:54;99325.47;;;15.22;78.24
63552;BME280;49698;48.072;7.800;2023-10-13T03:43:34;99331.03;;;15.17;78.54
63552;BME280;49698;48.072;7.800;2023-10-13T03:46:13;99332.28;;;15.11;77.98
63552;BME280;49698;48.072;7.800;2023-10-13T03:48:41;99331.44;;;15.02;78.07
63552;BME280;49698;48.072;7.800;2023-10-13T03:51:21;99337.63;;;14.93;78.68
63552;BME280;49698;48.072;7.800;2023-10-13T03:53:57;99330.78;;;14.87;78.98
63552;BME280;49698;48.072;7.800;2023-10-13T03:56:27;99327.41;;;14.82;79.09
63552;BME280;49698;48.072;7.800;2023-10-13T03:59:06;99321.34;;;14.76;79.44
63552;BME280;49698;48.072;7.800;2023-10-13T04:01:38;99322.59;;;14.70;79.44
63552;BME280;49698;48.072;7.800;2023-10-13T04:04:13;99316.03;;;14.62;80.17
63552;BME280;49698;48.072;7.800;2023-10-13T04:06:42;99315.84;;;14.59;80.65
63552;BME280;49698;48.072;7.800;2023-10-13T04:09:20;99310.25;;;14.55;80.62
63552;BME280;49698;48.072;7.800;2023-10-13T04:12:07;99302.47;;;14.54;80.61
63552;BME280;49698;48.072;7.800;2023-10-13T04:15:10;99302.47;;;14.54;80.39
63552;BME280;49698;48.072;7.800;2023-10-13T04:17:51;99301.66;;;14.53;80.78
63552;BME280;49698;48.072;7.800;2023-10-13T04:20:19;99309.00;;;14.53;80.74
63552;BME280;49698;48.072;7.800;2023-10-13T04:23:05;99299.88;;;14.49;80.92
63552;BME280;49698;48.072;7.800;2023-10-13T04:25:52;99297.78;;;14.46;81.14
63552;BME280;49698;48.072;7.800;2023-10-13T04:28:34;99295.69;;;14.42;81.53
63552;BME280;49698;48.072;7.800;2023-10-13T04:31:04;99296.31;;;14.39;81.94
63552;BME280;49698;48.072;7.800;2023-10-13T04:33:40;99297.75;;;14.37;81.94
63552;BME280;49698;48.072;7.800;2023-10-13T04:36:25;99290.53;;;14.32;82.20
63552;BME280;49698;48.072;7.800;2023-10-13T04:39:12;99298.00;;;14.27;82.25
63552;BME280;49698;48.072;7.800;2023-10-13T04:41:55;99295.91;;;14.24;82.39
63552;BME280;49698;48.072;7.800;2023-10-13T04:44:38;99299.22;;;14.20;82.65
63552;BME280;49698;48.072;7.800;2023-10-13T04:47:19;99301.75;;;14.17;82.48
63552;BME280;49698;48.072;7.800;2023-10-13T04:49:50;99297.44;;;14.16;82.78
63552;BME280;49698;48.072;7.800;2023-10-13T04:52:20;99293.97;;;14.15;83.05
63552;BME280;49698;48.072;7.800;2023-10-13T04:55:17;99293.47;;;14.13;83.07
63552;BME280;49698;48.072;7.800;2023-10-13T04:58:03;99287.56;;;14.11;83.05
63552;BME280;49698;48.072;7.800;2023-10-13T05:00:58;99279.78;;;14.10;83.02
63552;BME280;49698;48.072;7.800;2023-10-13T05:04:11;99281.50;;;14.06;83.41
63552;BME280;49698;48.072;7.800;2023-10-13T05:06:50;99286.72;;;14.02;83.18
63552;BME280;49698;48.072;7.800;2023-10-13T05:09:36;99281.13;;;13.99;83.55
63552;BME280;49698;48.072;7.800;2023-10-13T05:12:42;99280.16;;;13.94;83.95
63552;BME280;49698;48.072;7.800;2023-10-13T05:15:47;99274.84;;;13.89;84.03
63552;BME280;49698;48.072;7.800;2023-10-13T05:18:33;99276.59;;;13.85;84.15
63552;BME280;49698;48.072;7.800;2023-10-13T05:21:20;99270.19;;;13.81;84.44
63552;BME280;49698;48.072;7.800;2023-10-13T05:24:07;99270.81;;;13.78;84.54
63552;BME280;49698;48.072;7.800;2023-10-13T05:26:54;99272.03;;;13.72;84.76
63552;BME280;49698;48.072;7.800;2023-10-13T05:29:41;99278.38;;;13.67;84.99
63552;BME280;49698;48.072;7.800;2023-10-13T05:32:53;99283.59;;;13.64;84.96
63552;BME280;49698;48.072;7.800;2023-10-13T05:35:57;99286.88;;;13.61;85.71
63552;BME280;49698;48.072;7.800;2023-10-13T05:39:01;99290.19;;;13.58;85.73
63552;BME280;49698;48.072;7.800;2023-10-13T05:42:06;99280.31;;;13.53;85.92
63552;BME280;49698;48.072;7.800;2023-10-13T05:44:52;99283.63;;;13.50;86.30
63552;BME280;49698;48.072;7.800;2023-10-13T05:47:50;99289.94;;;13.45;86.25
63552;BME280;49698;48.072;7.800;2023-10-13T05:50:39;99284.03;;;13.43;86.03
63552;BME280;49698;48.072;7.800;2023-10-13T05:53:45;99282.75;;;13.41;86.36
63552;BME280;49698;48.072;7.800;2023-10-13T05:56:33;99287.34;;;13.40;85.84
63552;BME280;49698;48.072;7.800;2023-10-13T05:59:20;99285.75;;;13.39;85.65
63552;BME280;49698;48.072;7.800;2023-10-13T06:02:05;99285.25;;;13.37;85.87
63552;BME280;49698;48.072;7.800;2023-10-13T06:04:51;99286.38;;;13.36;86.30
63552;BME280;49698;48.072;7.800;2023-10-13T06:07:33;99278.06;;;13.33;86.08
63552;BME280;49698;48.072;7.800;2023-10-13T06:10:18;99289.97;;;13.32;86.17
63552;BME280;49698;48.072;7.800;2023-10-13T06:13:04;99276.28;;;13.28;85.93
63552;BME280;49698;48.072;7.800;2023-10-13T06:15:51;99278.16;;;13.28;85.87
63552;BME280;49698;48.072;7.800;2023-10-13T06:18:37;99281.19;;;13.26;85.65
63552;BME280;49698;48.072;7.800;2023-10-13T06:21:22;99279.59;;;13.25;85.94
63552;BME280;49698;48.072;7.800;2023-10-13T06:24:07;99297.38;;;13.26;85.94
63552;BME280;49698;48.072;7.800;2023-10-13T06:27:04;99282.78;;;13.27;85.84
63552;BME280;49698;48.072;7.800;2023-10-13T06:29:50;99282.19;;;13.30;85.33
63552;BME280;49698;48.072;7.800;2023-10-13T06:32:22;99289.16;;;13.31;85.11
63552;BME280;49698;48.072;7.800;2023-10-13T06:34:52;99293.16;;;13.34;85.16
63552;BME280;49698;48.072;7.800;2023-10-13T06:37:24;99283.66;;;13.36;84.87
63552;BME280;49698;48.072;7.800;2023-10-13T06:39:53;99294.34;;;13.41;84.51
63552;BME280;49698;48.072;7.800;2023-10-13T06:42:23;99288.34;;;13.44;84.46
63552;BME280;49698;48.072;7.800;2023-10-13T06:44:54;99292.31;;;13.47;84.22
63552;BME280;49698;48.072;7.800;2023-10-13T06:47:23;99294.41;;;13.50;84.22
63552;BME280;49698;48.072;7.800;2023-10-13T06:49:52;99299.72;;;13.55;84.23
63552;BME280;49698;48.072;7.800;2023-10-13T06:52:21;99296.09;;;13.60;84.03
63552;BME280;49698;48.072;7.800;2023-10-13T06:54:49;99290.56;;;13.65;83.70
63552;BME280;49698;48.072;7.800;2023-10-13T06:57:17;99290.44;;;13.70;83.79
63552;BME280;49698;48.072;7.800;2023-10-13T06:59:49;99290.34;;;13.75;83.36
63552;BME280;49698;48.072;7.800;2023-10-13T07:02:20;99286.41;;;13.81;82.86
63552;BME280;49698;48.072;7.800;2023-10-13T07:04:54;99285.97;;;13.88;82.52
63552;BME280;49698;48.072;7.800;2023-10-13T07:07:34;99297.97;;;13.95;82.11
63552;BME280;49698;48.072;7.800;2023-10-13T07:10:04;99283.72;;;14.04;82.14
63552;BME280;49698;48.072;7.800;2023-10-13T07:12:35;99292.19;;;14.11;81.79
63552;BME280;49698;48.072;7.800;2023-10-13T07:15:05;99287.13;;;14.18;81.50
63552;BME280;49698;48.072;7.800;2023-10-13T07:17:37;99286.38;;;14.26;80.84
63552;BME280;49698;48.072;7.800;2023-10-13T07:20:08;99294.22;;;14.36;80.69
63552;BME280;49698;48.072;7.800;2023-10-13T07:22:42;99297.47;;;14.47;80.23
63552;BME280;49698;48.072;7.800;2023-10-13T07:25:21;99301.34;;;14.55;79.94
63552;BME280;49698;48.072;7.800;2023-10-13T07:27:52;99295.19;;;14.63;79.83
63552;BME280;49698;48.072;7.800;2023-10-13T07:30:23;99298.72;;;14.72;79.45
63552;BME280;49698;48.072;7.800;2023-10-13T07:32:54;99301.78;;;14.79;79.51
63552;BME280;49698;48.072;7.800;2023-10-13T07:35:26;99302.09;;;14.86;79.34
63552;BME280;49698;48.072;7.800;2023-10-13T07:37:57;99298.16;;;14.92;78.86
63552;BME280;49698;48.072;7.800;2023-10-13T07:40:28;99304.38;;;15.02;78.31
63552;BME280;49698;48.072;7.800;2023-10-13T07:43:08;99296.78;;;15.12;78.29
63552;BME280;49698;48.072;7.800;2023-10-13T07:45:40;99294.06;;;15.21;77.91
63552;BME280;49698;48.072;7.800;2023-10-13T07:48:09;99298.06;;;15.32;77.23
63552;BME280;49698;48.072;7.800;2023-10-13T07:50:47;99298.25;;;15.45;76.75
63552;BME280;49698;48.072;7.800;2023-10-13T07:53:15;99287.59;;;15.57;76.27
63552;BME280;49698;48.072;7.800;2023-10-13T07:55:51;99301.81;;;15.71;75.65
63552;BME280;49698;48.072;7.800;2023-10-13T07:58:23;99302.44;;;15.85;75.33
63552;BME280;49698;48.072;7.800;2023-10-13T08:00:52;99297.66;;;16.00;74.77
63552;BME280;49698;48.072;7.800;2023-10-13T08:03:33;99303.03;;;16.17;74.21
63552;BME280;49698;48.072;7.800;2023-10-13T08:06:12;99299.97;;;16.36;73.30
63552;BME280;49698;48.072;7.800;2023-10-13T08:08:48;99293.97;;;16.60;72.31
63552;BME280;49698;48.072;7.800;2023-10-13T08:11:22;99298.69;;;16.89;71.06
63552;BME280;49698;48.072;7.800;2023-10-13T08:13:59;99293.56;;;17.17;70.00
63552;BME280;49698;48.072;7.800;2023-10-13T08:16:41;99290.50;;;17.48;68.58
63552;BME280;49698;48.072;7.800;2023-10-13T08:19:20;99293.31;;;17.81;67.06
63552;BME280;49698;48.072;7.800;2023-10-13T08:21:57;99283.91;;;18.12;65.60
63552;BME280;49698;48.072;7.800;2023-10-13T08:24:26;99283.28;;;18.40;64.54
63552;BME280;49698;48.072;7.800;2023-10-13T08:27:18;99286.47;;;18.66;63.02
63552;BME280;49698;48.072;7.800;2023-10-13T08:30:01;99288.34;;;18.87;62.10
63552;BME280;49698;48.072;7.800;2023-10-13T08:32:47;99285.38;;;19.04;61.32
63552;BME280;49698;48.072;7.800;2023-10-13T08:35:23;99291.63;;;19.17;60.22
63552;BME280;49698;48.072;7.800;2023-10-13T08:38:03;99288.88;;;19.29;59.77
63552;BME280;49698;48.072;7.800;2023-10-13T08:40:50;99283.72;;;19.40;59.82
63552;BME280;49698;48.072;7.800;2023-10-13T08:43:41;99270.75;;;19.49;59.46
63552;BME280;49698;48.072;7.800;2023-10-13T08:46:11;99276.84;;;19.58;59.06
63552;BME280;49698;48.072;7.800;2023-10-13T08:48:58;99282.66;;;19.69;59.08
63552;BME280;49698;48.072;7.800;2023-10-13T08:51:42;99281.72;;;19.77;58.70
63552;BME280;49698;48.072;7.800;2023-10-13T08:54:17;99278.72;;;19.82;59.01
63552;BME280;49698;48.072;7.800;2023-10-13T08:57:00;99280.44;;;19.87;58.89
63552;BME280;49698;48.072;7.800;2023-10-13T08:59:46;99284.50;;;19.93;58.56
63552;BME280;49698;48.072;7.800;2023-10-13T09:02:21;99279.59;;;19.98;57.88
63552;BME280;49698;48.072;7.800;2023-10-13T09:05:10;99280.13;;;20.04;57.61
63552;BME280;49698;48.072;7.800;2023-10-13T09:08:08;99277.94;;;20.10;56.94
63552;BME280;49698;48.072;7.800;2023-10-13T09:10:38;99274.16;;;20.14;56.86
63552;BME280;49698;48.072;7.800;2023-10-13T09:13:11;99278.13;;;20.17;56.49
63552;BME280;49698;48.072;7.800;2023-10-13T09:15:45;99268.44;;;20.19;56.33
63552;BME280;49698;48.072;7.800;2023-10-13T09:18:27;99274.53;;;20.28;56.12
63552;BME280;49698;48.072;7.800;2023-10-13T09:21:15;99260.34;;;20.39;55.43
63552;BME280;49698;48.072;7.800;2023-10-13T09:24:14;99262.34;;;20.54;55.47
63552;BME280;49698;48.072;7.800;2023-10-13T09:26:55;99252.66;;;20.72;54.63
63552;BME280;49698;48.072;7.800;2023-10-13T09:29:23;99254.97;;;20.90;54.39
63552;BME280;49698;48.072;7.800;2023-10-13T09:32:01;99245.25;;;21.08;53.96
63552;BME280;49698;48.072;7.800;2023-10-13T09:34:30;99252.63;;;21.23;53.47
63552;BME280;49698;48.072;7.800;2023-10-13T09:37:00;99234.25;;;21.40;53.27
63552;BME280;49698;48.072;7.800;2023-10-13T09:39:30;99237.78;;;21.60;53.08
63552;BME280;49698;48.072;7.800;2023-10-13T09:42:10;99227.59;;;21.80;52.48
63552;BME280;49698;48.072;7.800;2023-10-13T09:44:39;99226.13;;;22.05;51.78
63552;BME280;49698;48.072;7.800;2023-10-13T09:47:10;99220.75;;;22.32;50.79
63552;BME280;49698;48.072;7.800;2023-10-13T09:49:44;99217.22;;;22.54;50.67
63552;BME280;49698;48.072;7.800;2023-10-13T09:52:17;99220.28;;;22.76;50.23
63552;BME280;49698;48.072;7.800;2023-10-13T09:55:12;99211.28;;;23.02;49.38
63552;BME280;49698;48.072;7.800;2023-10-13T09:57:51;99211.56;;;23.23;48.83
63552;BME280;49698;48.072;7.800;2023-10-13T10:00:28;99221.59;;;23.42;47.33
63552;BME280;49698;48.072;7.800;2023-10-13T10:03:16;99202.22;;;23.61;46.80
63552;BME280;49698;48.072;7.800;2023-10-13T10:06:07;99209.16;;;23.82;45.37
63552;BME280;49698;48.072;7.800;2023-10-13T10:08:42;99211.28;;;23.99;45.01
63552;BME280;49698;48.072;7.800;2023-10-13T10:11:36;99210.25;;;24.14;44.97
63552;BME280;49698;48.072;7.800;2023-10-13T10:14:16;99200.97;;;24.30;44.36
63552;BME280;49698;48.072;7.800;2023-10-13T10:17:00;99194.03;;;24.43;43.85
63552;BME280;49698;48.072;7.800;2023-10-13T10:19:46;99198.09;;;24.56;42.63
63552;BME280;49698;48.072;7.800;2023-10-13T10:22:25;99193.06;;;24.69;42.73
63552;BME280;49698;48.072;7.800;2023-10-13T10:24:58;99189.19;;;24.81;42.35
63552;BME280;49698;48.072;7.800;2023-10-13T10:27:27;99182.56;;;24.89;41.46
63552;BME280;49698;48.072;7.800;2023-10-13T10:29:58;99177.91;;;25.00;40.75
63552;BME280;49698;48.072;7.800;2023-10-13T10:32:35;99174.47;;;25.10;40.09
63552;BME280;49698;48.072;7.800;2023-10-13T10:35:08;99178.06;;;25.22;38.86
63552;BME280;49698;48.072;7.800;2023-10-13T10:37:41;99167.91;;;25.33;38.55
63552;BME280;49698;48.072;7.800;2023-10-13T10:40:15;99171.47;;;25.44;38.04
63552;BME280;49698;48.072;7.800;2023-10-13T10:42:57;99156.94;;;25.51;37.60
63552;BME280;49698;48.072;7.800;2023-10-13T10:45:30;99157.75;;;25.58;37.44
63552;BME280;49698;48.072;7.800;2023-10-13T10:48:00;99156.97;;;25.69;37.13
63552;BME280;49698;48.072;7.800;2023-10-13T10:50:43;99148.00;;;25.79;36.79
63552;BME280;49698;48.072;7.800;2023-10-13T10:53:14;99153.91;;;25.88;36.73
63552;BME280;49698;48.072;7.800;2023-10-13T10:55:42;99145.25;;;25.97;36.43
63552;BME280;49698;48.072;7.800;2023-10-13T10:58:10;99155.50;;;26.07;35.57
63552;BME280;49698;48.072;7.800;2023-10-13T11:01:06;99137.78;;;26.19;34.65
63552;BME280;49698;48.072;7.800;2023-10-13T11:03:38;99147.22;;;26.25;34.37
63552;BME280;49698;48.072;7.800;2023-10-13T11:06:12;99130.31;;;26.30;34.19
63552;BME280;49698;48.072;7.800;2023-10-13T11:08:45;99125.56;;;26.38;33.61
63552;BME280;49698;48.072;7.800;2023-10-13T11:11:28;99117.69;;;26.43;33.45
63552;BME280;49698;48.072;7.800;2023-10-13T11:14:01;99109.03;;;26.48;33.04
63552;BME280;49698;48.072;7.800;2023-10-13T11:16:48;99114.53;;;26.52;33.58
63552;BME280;49698;48.072;7.800;2023-10-13T11:19:21;99105.09;;;26.56;33.19
63552;BME280;49698;48.072;7.800;2023-10-13T11:21:55;99094.84;;;26.61;33.22
63552;BME280;49698;48.072;7.800;2023-10-13T11:24:23;99086.16;;;26.66;33.11
63552;BME280;49698;48.072;7.800;2023-10-13T11:26:53;99088.13;;;26.72;33.16
63552;BME280;49698;48.072;7.800;2023-10-13T11:29:31;99075.47;;;26.75;33.35
63552;BME280;49698;48.072;7.800;2023-10-13T11:32:02;99074.69;;;26.81;32.97
63552;BME280;49698;48.072;7.800;2023-10-13T11:34:30;99073.47;;;26.86;32.33
63552;BME280;49698;48.072;7.800;2023-10-13T11:37:07;99068.72;;;26.90;32.44
63552;BME280;49698;48.072;7.800;2023-10-13T11:39:49;99068.69;;;26.97;32.51
63552;BME280;49698;48.072;7.800;2023-10-13T11:42:19;99061.59;;;27.00;32.66
63552;BME280;49698;48.072;7.800;2023-10-13T11:44:47;99056.06;;;27.03;32.39
63552;BME280;49698;48.072;7.800;2023-10-13T11:47:29;99059.97;;;27.06;32.62
63552;BME280;49698;48.072;7.800;2023-10-13T11:50:14;99051.31;;;27.07;32.66
63552;BME280;49698;48.072;7.800;2023-10-13T11:52:54;99051.34;;;27.11;32.47
63552;BME280;49698;48.072;7.800;2023-10-13T11:55:22;99047.34;;;27.16;32.05
63552;BME280;49698;48.072;7.800;2023-10-13T11:57:51;99050.88;;;27.20;32.49
63552;BME280;49698;48.072;7.800;2023-10-13T12:00:19;99050.09;;;27.23;32.35
63552;BME280;49698;48.072;7.800;2023-10-13T12:02:55;99047.31;;;27.23;32.19
63552;BME280;49698;48.072;7.800;2023-10-13T12:05:41;99041.38;;;27.24;32.13
63552;BME280;49698;48.072;7.800;2023-10-13T12:08:33;99042.16;;;27.25;32.21
63552;BME280;49698;48.072;7.800;2023-10-13T12:11:05;99034.66;;;27.25;32.46
63552;BME280;49698;48.072;7.800;2023-10-13T12:13:47;99029.97;;;27.26;32.66
63552;BME280;49698;48.072;7.800;2023-10-13T12:16:15;99022.06;;;27.28;32.50
63552;BME280;49698;48.072;7.800;2023-10-13T12:18:47;99021.63;;;27.29;32.64
63552;BME280;49698;48.072;7.800;2023-10-13T12:21:20;99025.97;;;27.34;32.31
63552;BME280;49698;48.072;7.800;2023-10-13T12:23:48;99018.06;;;27.36;32.36
63552;BME280;49698;48.072;7.800;2023-10-13T12:26:17;99011.72;;;27.39;32.00
63552;BME280;49698;48.072;7.800;2023-10-13T12:28:46;99013.69;;;27.42;31.86
63552;BME280;49698;48.072;7.800;2023-10-13T12:31:19;99012.06;;;27.45;31.92
63552;BME280;49698;48.072;7.800;2023-10-13T12:33:55;99002.19;;;27.47;31.67
63552;BME280;49698;48.072;7.800;2023-10-13T12:36:32;99008.13;;;27.49;31.91
63552;BME280;49698;48.072;7.800;2023-10-13T12:39:07;98993.09;;;27.50;31.13
63552;BME280;49698;48.072;7.800;2023-10-13T12:41:53;98987.94;;;27.52;31.54
63552;BME280;49698;48.072;7.800;2023-10-13T12:44:39;98987.16;;;27.55;31.35
63552;BME280;49698;48.072;7.800;2023-10-13T12:47:24;98983.59;;;27.55;31.66
63552;BME280;49698;48.072;7.800;2023-10-13T12:50:11;98970.56;;;27.55;31.40
63552;BME280;49698;48.072;7.800;2023-10-13T12:52:53;98968.22;;;27.58;31.64
63552;BME280;49698;48.072;7.800;2023-10-13T12:55:21;98961.03;;;27.64;31.07
63552;BME280;49698;48.072;7.800;2023-10-13T12:57:51;98968.09;;;27.68;30.92
63552;BME280;49698;48.072;7.800;2023-10-13T13:00:19;98967.28;;;27.71;31.30
63552;BME280;49698;48.072;7.800;2023-10-13T13:02:50;98969.66;;;27.73;31.28
63552;BME280;49698;48.072;7.800;2023-10-13T13:05:23;98954.69;;;27.74;31.54
63552;BME280;49698;48.072;7.800;2023-10-13T13:07:55;98951.50;;;27.75;31.67
63552;BME280;49698;48.072;7.800;2023-10-13T13:10:23;98948.69;;;27.79;31.60
63552;BME280;49698;48.072;7.800;2023-10-13T13:13:04;98947.50;;;27.80;31.71
63552;BME280;49698;48.072;7.800;2023-10-13T13:15:33;98943.13;;;27.83;31.46
63552;BME280;49698;48.072;7.800;2023-10-13T13:18:01;98939.56;;;27.86;31.27
63552;BME280;49698;48.072;7.800;2023-10-13T13:20:38;98942.28;;;27.89;31.49
63552;BME280;49698;48.072;7.800;2023-10-13T13:23:11;98939.88;;;27.91;31.31
63552;BME280;49698;48.072;7.800;2023-10-13T13:25:40;98932.34;;;27.95;31.53
63552;BME280;49698;48.072;7.800;2023-10-13T13:28:09;98939.41;;;28.00;31.10
63552;BME280;49698;48.072;7.800;2023-10-13T13:30:37;98931.53;;;27.98;30.73
63552;BME280;49698;48.072;7.800;2023-10-13T13:33:05;98925.66;;;27.96;31.01
63552;BME280;49698;48.072;7.800;2023-10-13T13:35:41;98918.53;;;27.95;31.13
63552;BME280;49698;48.072;7.800;2023-10-13T13:38:10;98925.25;;;27.94;30.81
63552;BME280;49698;48.072;7.800;2023-10-13T13:40:48;98918.19;;;27.93;31.27
63552;BME280;49698;48.072;7.800;2023-10-13T13:43:20;98916.56;;;27.96;31.39
63552;BME280;49698;48.072;7.800;2023-10-13T13:46:04;98915.78;;;27.95;30.86
63552;BME280;49698;48.072;7.800;2023-10-13T13:48:35;98908.69;;;27.94;30.80